Time;durP1;ratioP1;P1;durP2;ratioP2;P2;SDS_P1;SDS_P2;PMS_P1;PMS_P2;Temp;Humidity;BMP_temperature;BMP_pressure;BME280_temperature;BME280_humidity;BME280_pressure;Samples;Min_cycle;Max_cycle;Signal;HPM_P1;HPM_P2
2022/11/09 00:01:35;;;;;;;10.23;2.55;;;;;;;12.89;100.00;100528.22;7301243;19;20210;-74
2022/11/09 00:04:06;;;;;;;9.52;2.75;;;;;;;12.91;100.00;100535.22;7288742;19;20204;-74
2022/11/09 00:06:37;;;;;;;10.75;2.60;;;;;;;12.88;100.00;100540.50;7306537;19;20092;-74
2022/11/09 00:09:08;;;;;;;14.38;2.90;;;;;;;12.87;100.00;100528.22;7301415;19;20015;-74
2022/11/09 00:11:39;;;;;;;9.35;2.95;;;;;;;12.74;100.00;100522.09;7309944;19;20026;-74
2022/11/09 00:14:15;;;;;;;9.55;3.08;;;;;;;12.73;100.00;100530.84;7300941;19;20310;-74
2022/11/09 00:16:45;;;;;;;13.48;2.90;;;;;;;12.73;100.00;100528.22;7290511;19;20018;-74
2022/11/09 00:19:15;;;;;;;11.20;2.70;;;;;;;12.59;100.00;100522.09;7292640;19;20594;-74
2022/11/09 00:21:44;;;;;;;7.68;2.30;;;;;;;12.53;100.00;100519.44;7306750;19;20464;-73
2022/11/09 00:24:14;;;;;;;6.60;2.42;;;;;;;12.51;100.00;100525.59;7314227;19;20022;-74
2022/11/09 00:26:44;;;;;;;9.70;2.92;;;;;;;12.47;100.00;100521.25;7319311;19;20509;-74
2022/11/09 00:29:16;;;;;;;8.23;3.33;;;;;;;12.50;100.00;100521.22;7320640;19;20440;-74
2022/11/09 00:31:46;;;;;;;14.75;2.85;;;;;;;12.46;100.00;100527.38;7314066;19;20401;-76
2022/11/09 00:34:16;;;;;;;6.13;2.38;;;;;;;12.42;100.00;100532.63;7304040;19;20187;-74
2022/11/09 00:36:46;;;;;;;9.45;3.08;;;;;;;12.44;100.00;100533.50;7298123;19;20212;-74
2022/11/09 00:39:15;;;;;;;9.57;2.40;;;;;;;12.41;100.00;100511.59;7305978;19;20020;-75
2022/11/09 00:41:45;;;;;;;8.85;3.13;;;;;;;12.39;100.00;100530.00;7301450;19;20192;-76
2022/11/09 00:44:17;;;;;;;7.97;2.50;;;;;;;12.30;100.00;100522.09;7286955;19;20291;-74
2022/11/09 00:46:47;;;;;;;8.05;2.28;;;;;;;12.33;100.00;100515.97;7312079;19;20480;-74
2022/11/09 00:49:17;;;;;;;12.30;2.80;;;;;;;12.31;100.00;100530.88;7302289;19;20271;-74
2022/11/09 00:51:46;;;;;;;11.48;2.90;;;;;;;12.39;100.00;100530.00;7316996;19;20231;-74
2022/11/09 00:54:16;;;;;;;7.18;2.30;;;;;;;12.31;100.00;100520.34;7307770;19;20298;-73
2022/11/09 00:56:46;;;;;;;23.17;3.05;;;;;;;12.21;100.00;100529.09;7308482;19;20015;-74
2022/11/09 00:59:18;;;;;;;8.45;2.65;;;;;;;12.32;100.00;100527.34;7298157;19;20281;-74
2022/11/09 01:01:48;;;;;;;8.80;2.40;;;;;;;12.38;100.00;100528.25;7325808;19;20014;-74
2022/11/09 01:04:20;;;;;;;7.72;2.67;;;;;;;12.30;100.00;100523.84;7315425;19;21062;-74
2022/11/09 01:06:50;;;;;;;6.10;2.28;;;;;;;12.17;100.00;100528.22;7309870;19;20021;-74
2022/11/09 01:09:19;;;;;;;5.00;1.90;;;;;;;12.28;100.00;100520.34;7304176;19;20304;-74
2022/11/09 01:11:49;;;;;;;12.15;2.67;;;;;;;12.21;100.00;100521.22;7311523;19;20304;-74
2022/11/09 01:14:22;;;;;;;6.57;2.30;;;;;;;12.12;100.00;100529.94;7309462;19;20018;-74
2022/11/09 01:16:51;;;;;;;7.55;2.20;;;;;;;12.16;100.00;100521.19;7304009;19;20181;-74
2022/11/09 01:19:21;;;;;;;10.90;3.42;;;;;;;12.18;100.00;100524.72;7312893;19;20362;-75
2022/11/09 01:21:51;;;;;;;9.32;2.70;;;;;;;12.20;100.00;100528.22;7310567;19;20011;-76
2022/11/09 01:24:20;;;;;;;9.25;2.50;;;;;;;12.18;100.00;100529.09;7307216;19;20394;-76
2022/11/09 01:26:50;;;;;;;8.52;2.85;;;;;;;12.19;100.00;100529.09;7313678;19;20187;-75
2022/11/09 01:29:22;;;;;;;10.75;2.50;;;;;;;12.23;100.00;100529.97;7314567;19;20106;-76
2022/11/09 01:31:52;;;;;;;9.35;2.75;;;;;;;12.12;100.00;100535.22;7312460;19;20195;-75
2022/11/09 01:34:22;;;;;;;12.35;2.63;;;;;;;12.14;100.00;100537.84;7313347;19;20007;-75
2022/11/09 01:36:52;;;;;;;10.45;2.88;;;;;;;12.19;100.00;100544.00;7314764;19;20441;-76
2022/11/09 01:39:22;;;;;;;9.05;2.63;;;;;;;12.09;100.00;100551.84;7290790;19;20082;-74
2022/11/09 01:41:52;;;;;;;10.63;2.88;;;;;;;12.15;100.00;100544.84;7308759;19;20493;-74
2022/11/09 01:44:24;;;;;;;9.60;2.75;;;;;;;12.11;100.00;100529.06;7305031;19;20274;-74
2022/11/09 01:46:58;;;;;;;5.00;2.33;;;;;;;12.09;100.00;100537.84;7316954;19;20282;-74
2022/11/09 01:49:39;;;;;;;9.10;2.95;;;;;;;12.04;100.00;100535.19;7285900;19;21476;-74
2022/11/09 01:52:13;;;;;;;12.52;3.30;;;;;;;12.02;100.00;100543.94;7304076;19;20291;-74
2022/11/09 01:54:46;;;;;;;10.18;3.10;;;;;;;12.09;100.00;100527.31;7299051;19;20314;-74
2022/11/09 01:57:22;;;;;;;11.13;3.07;;;;;;;12.08;100.00;100544.84;7311979;19;20214;-74
2022/11/09 01:59:59;;;;;;;8.27;3.15;;;;;;;12.16;100.00;100546.63;7301836;19;20423;-74
2022/11/09 02:02:29;;;;;;;11.95;2.95;;;;;;;12.13;100.00;100551.88;7293129;19;20283;-75
2022/11/09 02:05:03;;;;;;;15.93;3.13;;;;;;;12.13;100.00;100554.50;7290112;19;20090;-74
2022/11/09 02:07:32;;;;;;;9.20;2.50;;;;;;;12.17;100.00;100554.50;7296601;19;20018;-74
2022/11/09 02:10:08;;;;;;;12.57;2.80;;;;;;;12.22;100.00;100541.38;7293750;19;20518;-73
2022/11/09 02:12:38;;;;;;;8.05;2.58;;;;;;;12.12;100.00;100529.94;7299843;19;20019;-74
2022/11/09 02:15:13;;;;;;;11.77;3.15;;;;;;;12.07;100.00;100543.09;7295806;19;20046;-75
2022/11/09 02:17:45;;;;;;;12.35;2.88;;;;;;;12.05;100.00;100536.94;7284256;19;20307;-75
2022/11/09 02:20:18;;;;;;;10.60;3.15;;;;;;;12.10;100.00;100529.94;7301111;19;20025;-74
2022/11/09 02:22:48;;;;;;;15.10;3.17;;;;;;;12.11;100.00;100534.34;7283641;19;20293;-74
2022/11/09 02:25:19;;;;;;;13.32;2.95;;;;;;;12.06;100.00;100545.72;7320482;19;21247;-74
2022/11/09 02:27:50;;;;;;;9.32;3.00;;;;;;;12.06;100.00;100550.97;7313985;19;20463;-75
2022/11/09 02:30:23;;;;;;;12.45;2.45;;;;;;;12.05;100.00;100557.97;7311443;19;20420;-74
2022/11/09 02:32:53;;;;;;;;;;;;;;;12.04;100.00;100553.59;7306381;19;20416;-73
2022/11/09 02:35:25;;;;;;;9.25;3.40;;;;;;;11.98;100.00;100553.56;7299993;19;19919;-74
2022/11/09 02:37:55;;;;;;;13.48;2.58;;;;;;;12.01;100.00;100545.69;7293212;19;20530;-74
2022/11/09 02:40:28;;;;;;;14.40;2.72;;;;;;;12.01;100.00;100558.84;7301704;19;20021;-74
2022/11/09 02:42:59;;;;;;;7.13;2.72;;;;;;;12.04;100.00;100557.97;7315736;19;20287;-75
2022/11/09 02:45:28;;;;;;;9.88;2.47;;;;;;;11.94;100.00;100556.19;7314862;19;20299;-74
2022/11/09 02:47:58;;;;;;;9.32;2.92;;;;;;;11.98;100.00;100565.84;7289681;19;20192;-74
2022/11/09 02:50:31;;;;;;;7.32;2.35;;;;;;;11.87;100.00;100552.66;7310797;19;20014;-74
2022/11/09 02:53:00;;;;;;;9.68;2.53;;;;;;;11.94;100.00;100553.56;7291718;19;20006;-74
2022/11/09 02:55:30;;;;;;;7.65;2.90;;;;;;;11.87;100.00;100567.56;7311005;19;20014;-74
2022/11/09 02:58:00;;;;;;;13.40;3.38;;;;;;;11.82;100.00;100556.16;7314373;19;20204;-74
2022/11/09 03:00:30;;;;;;;12.27;3.00;;;;;;;11.83;100.00;100556.16;7331769;19;20007;-75
2022/11/09 03:02:59;;;;;;;17.02;3.47;;;;;;;11.78;100.00;100557.88;7312498;19;20192;-75
2022/11/09 03:05:32;;;;;;;9.05;3.03;;;;;;;11.75;100.00;100565.72;7301143;19;20115;-74
2022/11/09 03:08:02;;;;;;;10.90;3.50;;;;;;;11.78;100.00;100560.50;7306544;19;20288;-75
2022/11/09 03:10:35;;;;;;;12.80;3.47;;;;;;;11.85;100.00;100562.28;7297154;19;20778;-74
2022/11/09 03:13:05;;;;;;;10.77;3.00;;;;;;;11.77;100.00;100569.25;7296031;19;20214;-74
2022/11/09 03:15:34;;;;;;;9.45;2.60;;;;;;;11.76;100.00;100568.34;7312651;19;20284;-75
2022/11/09 03:18:04;;;;;;;14.00;3.08;;;;;;;11.67;100.00;100578.81;7318350;19;20183;-74
2022/11/09 03:20:36;;;;;;;8.90;2.50;;;;;;;11.70;100.00;100588.47;7302827;19;20332;-75
2022/11/09 03:23:06;;;;;;;10.73;2.55;;;;;;;11.64;100.00;100588.44;7295328;19;20295;-74
2022/11/09 03:25:35;;;;;;;9.77;2.88;;;;;;;11.68;100.00;100591.09;7299972;19;20382;-75
2022/11/09 03:28:08;;;;;;;6.75;2.63;;;;;;;11.67;100.00;100598.97;7311653;19;20022;-75
2022/11/09 03:30:37;;;;;;;8.52;2.70;;;;;;;11.67;100.00;100591.06;7302379;19;20017;-74
2022/11/09 03:33:11;;;;;;;7.90;2.65;;;;;;;11.57;100.00;100597.16;7310229;19;20184;-75
2022/11/09 03:35:43;;;;;;;;;;;;;;;11.54;100.00;100602.38;7306372;19;20015;-75
2022/11/09 03:38:14;;;;;;;8.57;2.67;;;;;;;11.51;100.00;100597.13;7320876;19;19954;-75
2022/11/09 03:40:43;;;;;;;13.63;3.58;;;;;;;11.48;100.00;100600.59;7306703;19;20413;-74
2022/11/09 03:43:14;;;;;;;10.05;3.20;;;;;;;11.46;100.00;100599.72;7297980;19;20207;-75
2022/11/09 03:45:43;;;;;;;8.85;2.85;;;;;;;11.47;100.00;100601.47;7293987;19;20574;-75
2022/11/09 03:48:13;;;;;;;9.45;2.53;;;;;;;11.47;100.00;100610.22;7323762;19;20287;-74
2022/11/09 03:50:46;;;;;;;9.38;2.85;;;;;;;11.46;100.00;100615.47;7317894;19;20018;-74
2022/11/09 03:53:16;;;;;;;6.68;2.60;;;;;;;11.39;100.00;100613.72;7298856;19;20422;-75
2022/11/09 03:55:46;;;;;;;9.70;2.75;;;;;;;11.38;100.00;100618.09;7281261;19;20026;-75
2022/11/09 03:58:16;;;;;;;10.65;2.83;;;;;;;11.37;100.00;100616.31;7304130;19;20191;-75
2022/11/09 04:00:46;;;;;;;11.35;2.88;;;;;;;11.37;100.00;100625.94;7301555;19;20099;-74
2022/11/09 04:03:15;;;;;;;13.48;2.72;;;;;;;11.45;100.00;100625.09;7294154;19;20198;-74
2022/11/09 04:05:48;;;;;;;8.75;2.75;;;;;;;11.41;100.00;100639.13;7315956;19;20023;-74
2022/11/09 04:08:18;;;;;;;7.28;2.42;;;;;;;11.46;100.00;100631.22;7315173;19;20188;-75
2022/11/09 04:10:47;;;;;;;13.13;3.28;;;;;;;11.46;100.00;100632.09;7287036;19;20025;-75
2022/11/09 04:13:17;;;;;;;9.82;2.38;;;;;;;11.60;100.00;100637.44;7285435;19;21359;-74
2022/11/09 04:15:47;;;;;;;9.98;2.50;;;;;;;11.64;100.00;100633.09;7298771;19;20731;-74
2022/11/09 04:18:18;;;;;;;9.60;2.47;;;;;;;11.56;100.00;100646.19;7293419;19;20007;-74
2022/11/09 04:20:50;;;;;;;6.53;2.50;;;;;;;11.63;100.00;100640.09;7288552;19;20204;-75
2022/11/09 04:23:20;;;;;;;9.80;2.38;;;;;;;11.54;100.00;100628.66;7288527;19;20022;-75
2022/11/09 04:25:50;;;;;;;12.65;2.60;;;;;;;11.50;100.00;100635.63;7316058;19;20010;-74
2022/11/09 04:28:20;;;;;;;10.38;2.85;;;;;;;11.43;100.00;100634.75;7320864;19;20467;-75
2022/11/09 04:30:50;;;;;;;11.18;2.35;;;;;;;11.42;100.00;100640.88;7313873;19;20010;-74
2022/11/09 04:33:20;;;;;;;9.02;2.30;;;;;;;11.40;100.00;100631.22;7306583;19;20626;-75
2022/11/09 04:35:53;;;;;;;6.35;1.95;;;;;;;11.42;100.00;100640.88;7305033;19;20007;-75
2022/11/09 04:38:22;;;;;;;7.13;2.50;;;;;;;11.37;100.00;100642.59;7309616;19;20402;-73
2022/11/09 04:40:58;;;;;;;8.25;2.90;;;;;;;11.38;100.00;100644.34;7298540;19;20010;-74
2022/11/09 04:43:27;;;;;;;8.98;2.60;;;;;;;11.34;100.00;100642.56;7297128;19;20015;-73
2022/11/09 04:46:01;;;;;;;11.57;2.17;;;;;;;11.28;100.00;100642.53;7309115;19;20241;-72
2022/11/09 04:48:31;;;;;;;11.27;2.67;;;;;;;11.21;100.00;100656.47;7293659;19;20288;-73
2022/11/09 04:51:06;;;;;;;11.52;2.97;;;;;;;11.23;100.00;100654.72;7300043;19;20014;-72
2022/11/09 04:53:36;;;;;;;11.55;3.97;;;;;;;11.12;100.00;100657.28;7312088;19;20025;-71
2022/11/09 04:56:07;;;;;;;15.80;3.72;;;;;;;11.09;100.00;100638.00;7284638;19;20370;-72
2022/11/09 04:58:36;;;;;;;9.82;2.53;;;;;;;11.05;100.00;100633.59;7300141;19;20446;-73
2022/11/09 05:01:08;;;;;;;10.65;2.70;;;;;;;10.99;100.00;100636.16;7283198;19;20633;-72
2022/11/09 05:03:38;;;;;;;11.60;2.78;;;;;;;11.02;100.00;100644.94;7290041;19;20288;-71
2022/11/09 05:08:53;;;;;;;12.25;3.63;;;;;;;10.95;100.00;100637.00;7294465;19;20335;-71
2022/11/09 05:11:23;;;;;;;9.90;3.67;;;;;;;10.88;100.00;100633.44;7299853;19;20018;-72
2022/11/09 05:13:53;;;;;;;13.82;3.13;;;;;;;10.95;100.00;100643.13;7292632;19;20502;-72
2022/11/09 05:16:23;;;;;;;8.95;2.58;;;;;;;10.88;100.00;100637.81;7291836;19;20704;-72
2022/11/09 05:18:53;;;;;;;11.48;2.35;;;;;;;10.85;100.00;100645.66;7300363;19;20207;-72
2022/11/09 05:21:26;;;;;;;6.22;2.13;;;;;;;10.81;100.00;100636.88;7328821;19;20433;-72
2022/11/09 05:23:59;;;;;;;10.38;2.53;;;;;;;10.76;100.00;100643.81;7303183;19;20420;-73
2022/11/09 05:26:31;;;;;;;7.57;2.90;;;;;;;10.69;100.00;100634.16;7316243;19;20275;-73
2022/11/09 05:29:01;;;;;;;12.23;2.53;;;;;;;10.66;100.00;100640.25;7300892;19;20452;-73
2022/11/09 05:31:32;;;;;;;8.30;2.33;;;;;;;10.75;100.00;100645.56;7294985;19;20307;-72
2022/11/09 05:34:02;;;;;;;11.98;3.35;;;;;;;10.71;100.00;100649.03;7306551;19;20014;-73
2022/11/09 05:36:37;;;;;;;8.80;2.20;;;;;;;10.70;100.00;100649.91;7284998;19;20007;-73
2022/11/09 05:39:06;;;;;;;7.65;2.45;;;;;;;10.67;100.00;100647.25;7290772;19;20022;-73
2022/11/09 05:41:41;;;;;;;7.05;2.20;;;;;;;10.69;100.00;100650.75;7307392;19;20375;-75
2022/11/09 05:44:30;;;;;;;;;;;;;;;;;;;;;
2022/11/09 05:48:07;;;;;;;;;;;;;;;;;;;;;
2022/11/09 05:58:49;;;;;;;10.90;2.60;;;;;;;10.58;100.00;100657.63;7300461;19;20199;-73
2022/11/09 06:02:25;;;;;;;;;;;;;;;;;;;;;
2022/11/09 06:21:22;;;;;;;;;;;;;;;;;;;;;
2022/11/09 06:47:49;;;;;;;;;;;;;;;;;;;;;
2022/11/09 07:01:36;;;;;;;10.43;2.95;;;;;;;10.83;100.00;100677.13;7297970;19;20320;-76
2022/11/09 07:04:06;;;;;;;12.90;2.90;;;;;;;10.81;100.00;100677.09;7269589;19;20313;-77
2022/11/09 07:06:36;;;;;;;9.60;2.63;;;;;;;10.79;100.00;100663.09;7278362;19;20237;-76
2022/11/09 07:09:05;;;;;;;11.20;3.00;;;;;;;10.77;100.00;100664.81;7278315;19;20350;-77
2022/11/09 07:11:35;;;;;;;10.15;2.88;;;;;;;10.72;100.00;100666.53;7283237;19;20309;-76
2022/11/09 07:14:05;;;;;;;11.88;3.10;;;;;;;10.75;100.00;100666.56;7283057;19;20293;-77
2022/11/09 07:16:37;;;;;;;9.50;3.35;;;;;;;10.71;100.00;100664.78;7281508;19;20094;-76
2022/11/09 07:19:07;;;;;;;9.20;2.97;;;;;;;10.71;100.00;100679.63;7289154;19;20130;-77
2022/11/09 07:21:37;;;;;;;9.52;3.08;;;;;;;10.78;100.00;100669.22;7281290;19;20745;-76
2022/11/09 07:24:07;;;;;;;14.60;3.60;;;;;;;10.86;100.00;100674.53;7282863;19;20002;-77
2022/11/09 07:26:37;;;;;;;11.20;2.95;;;;;;;10.90;100.00;100680.69;7279462;19;20015;-77
2022/11/09 07:29:07;;;;;;;9.65;2.70;;;;;;;10.89;100.00;100686.81;7278219;19;20404;-77
2022/11/09 07:31:39;;;;;;;9.85;3.20;;;;;;;10.90;100.00;100680.69;7286087;19;20542;-76
2022/11/09 07:34:09;;;;;;;11.82;3.15;;;;;;;10.95;100.00;100690.34;7285179;19;20188;-77
2022/11/09 07:36:39;;;;;;;13.02;3.33;;;;;;;10.89;100.00;100689.41;7284388;19;20214;-76
2022/11/09 07:39:09;;;;;;;13.18;3.47;;;;;;;10.89;100.00;100692.03;7287739;19;20073;-76
2022/11/09 07:41:39;;;;;;;10.57;3.53;;;;;;;10.85;100.00;100699.00;7282717;19;20426;-77
2022/11/09 07:44:13;;;;;;;14.95;4.10;;;;;;;10.84;100.00;100712.09;7288617;19;20057;-76
2022/11/09 07:46:45;;;;;;;10.75;3.38;;;;;;;10.87;100.00;100701.66;7289691;19;20133;-76
2022/11/09 07:49:15;;;;;;;11.55;3.53;;;;;;;10.85;100.00;100704.25;7287154;19;20194;-77
2022/11/09 07:51:45;;;;;;;15.77;3.50;;;;;;;10.82;100.00;100712.97;7286383;19;20025;-77
2022/11/09 07:54:15;;;;;;;15.52;4.38;;;;;;;10.85;100.00;100713.88;7291029;19;20523;-76
2022/11/09 07:56:45;;;;;;;11.30;3.92;;;;;;;10.89;100.00;100713.91;7293547;19;20014;-77
2022/11/09 07:59:14;;;;;;;15.00;3.75;;;;;;;10.91;100.00;100714.81;7287904;19;20281;-76
2022/11/09 08:01:47;;;;;;;15.95;3.72;;;;;;;10.91;100.00;100724.44;7286956;19;20238;-76
2022/11/09 08:04:16;;;;;;;11.57;4.03;;;;;;;11.02;100.00;100723.66;7296604;19;20290;-75
2022/11/09 08:06:46;;;;;;;9.55;3.20;;;;;;;11.07;100.00;100718.47;7299272;19;20017;-75
2022/11/09 08:09:16;;;;;;;14.02;3.05;;;;;;;11.14;100.00;100736.91;7300598;19;20410;-75
2022/11/09 08:11:46;;;;;;;10.10;3.35;;;;;;;11.25;100.00;100726.50;7289277;19;20201;-77
2022/11/09 08:14:15;;;;;;;11.77;2.67;;;;;;;11.35;100.00;100728.34;7291156;19;20018;-77
2022/11/09 08:16:48;;;;;;;13.20;3.42;;;;;;;11.36;100.00;100727.47;7292843;19;20018;-76
2022/11/09 08:19:18;;;;;;;12.98;3.17;;;;;;;11.43;100.00;100731.03;7294712;19;20248;-75
2022/11/09 08:21:48;;;;;;;11.98;3.30;;;;;;;11.48;100.00;100745.03;7292097;19;20217;-75
2022/11/09 08:24:18;;;;;;;8.98;3.38;;;;;;;11.56;100.00;100734.59;7283718;19;20029;-77
2022/11/09 08:26:47;;;;;;;13.43;3.25;;;;;;;11.58;100.00;100743.38;7291393;19;20289;-76
2022/11/09 08:29:17;;;;;;;16.40;3.17;;;;;;;11.63;100.00;100741.66;7295829;19;20243;-76
2022/11/09 08:31:50;;;;;;;11.70;3.03;;;;;;;11.67;100.00;100757.44;7296857;19;20326;-75
2022/11/09 08:34:20;;;;;;;14.82;2.95;;;;;;;11.68;100.00;100740.81;7291113;19;20267;-76
2022/11/09 08:36:50;;;;;;;17.40;4.25;;;;;;;11.70;100.00;100754.84;7293239;19;20018;-75
2022/11/09 08:39:21;;;;;;;13.05;3.40;;;;;;;11.70;100.00;100751.34;7295809;19;20035;-75
2022/11/09 08:41:54;;;;;;;11.10;2.70;;;;;;;11.64;100.00;100761.81;7294125;19;20291;-75
2022/11/09 08:44:24;;;;;;;11.05;3.42;;;;;;;11.67;100.00;100761.81;7296326;19;20470;-75
2022/11/09 08:46:59;;;;;;;7.70;3.58;;;;;;;11.69;100.00;100755.72;7290797;19;20297;-75
2022/11/09 08:49:29;;;;;;;16.13;3.45;;;;;;;11.67;100.00;100760.09;7292600;19;20704;-75
2022/11/09 08:52:00;;;;;;;11.18;3.13;;;;;;;11.70;100.00;100760.09;7299257;19;20587;-76
2022/11/09 08:54:32;;;;;;;12.80;3.88;;;;;;;11.71;100.00;100768.88;7291262;19;20579;-72
2022/11/09 08:57:02;;;;;;;12.10;4.40;;;;;;;11.70;100.00;100764.47;7293769;19;20384;-76
2022/11/09 08:59:32;;;;;;;10.30;3.25;;;;;;;11.70;100.00;100772.38;7289400;19;20011;-72
2022/11/09 09:02:05;;;;;;;8.30;3.10;;;;;;;11.67;100.00;100777.59;7293617;19;20561;-72
2022/11/09 09:04:35;;;;;;;10.00;3.17;;;;;;;11.67;100.00;100773.22;7298825;19;20203;-73
2022/11/09 09:07:05;;;;;;;12.65;3.10;;;;;;;11.65;100.00;100763.56;7298779;19;20505;-73
2022/11/09 09:09:36;;;;;;;8.48;3.25;;;;;;;11.69;100.00;100758.34;7297054;19;20192;-74
2022/11/09 09:12:07;;;;;;;16.25;3.53;;;;;;;11.66;100.00;100773.19;7292374;19;20192;-73
2022/11/09 09:14:37;;;;;;;14.27;4.03;;;;;;;11.63;100.00;100767.94;7317640;19;20458;-73
2022/11/09 09:17:11;;;;;;;14.57;3.50;;;;;;;11.67;100.00;100778.47;7292311;19;20394;-75
2022/11/09 09:19:41;;;;;;;13.80;3.63;;;;;;;11.69;100.00;100766.22;7293911;19;20363;-73
2022/11/09 09:22:18;;;;;;;11.18;3.60;;;;;;;11.67;100.00;100762.72;7292098;19;20498;-73
2022/11/09 09:24:48;;;;;;;15.70;3.70;;;;;;;11.73;100.00;100767.13;7291244;19;20354;-73
2022/11/09 09:27:18;;;;;;;16.35;4.20;;;;;;;11.75;100.00;100760.13;7290109;19;20094;-73
2022/11/09 09:29:48;;;;;;;16.33;3.80;;;;;;;11.75;100.00;100770.66;7293764;19;20063;-73
2022/11/09 09:32:20;;;;;;;15.13;3.90;;;;;;;11.78;100.00;100781.22;7292870;19;20185;-74
2022/11/09 09:34:50;;;;;;;11.65;3.53;;;;;;;11.83;100.00;100776.88;7289839;19;20294;-73
2022/11/09 09:37:20;;;;;;;13.35;4.05;;;;;;;11.81;100.00;100773.34;7296289;19;20035;-74
2022/11/09 09:39:50;;;;;;;17.65;3.33;;;;;;;11.81;100.00;100765.47;7287484;19;20034;-74
2022/11/09 09:42:22;;;;;;;9.05;3.72;;;;;;;11.83;100.00;100778.63;7290423;19;20313;-75
2022/11/09 09:44:58;;;;;;;12.88;3.72;;;;;;;11.89;100.00;100760.25;7286821;19;20022;-75
2022/11/09 09:47:44;;;;;;;12.35;3.35;;;;;;;11.97;100.00;100775.22;7284875;19;20011;-75
2022/11/09 09:50:20;;;;;;;15.60;5.00;;;;;;;12.09;100.00;100780.56;7289624;19;20214;-74
2022/11/09 09:52:56;;;;;;;9.95;3.30;;;;;;;12.28;100.00;100783.28;7291714;19;20648;-77
2022/11/09 09:55:52;;;;;;;8.88;3.03;;;;;;;12.27;100.00;100792.06;7288514;19;20317;-74
2022/11/09 09:58:27;;;;;;;12.50;3.20;;;;;;;12.31;100.00;100799.09;7287189;19;20043;-75
2022/11/09 10:01:01;;;;;;;15.90;3.67;;;;;;;12.33;100.00;100805.22;7295792;19;20523;-75
2022/11/09 10:03:34;;;;;;;9.98;2.80;;;;;;;12.26;100.00;100806.94;7291063;19;20424;-76
2022/11/09 10:06:11;;;;;;;10.38;3.10;;;;;;;12.23;100.00;100813.94;7292255;19;20292;-76
2022/11/09 10:08:55;;;;;;;14.57;3.30;;;;;;;12.21;100.00;100831.47;7292723;19;20288;-76
2022/11/09 10:11:38;;;;;;;9.10;3.00;;;;;;;12.19;100.00;100827.94;7291641;19;20505;-76
2022/11/09 10:14:34;;;;;;;13.70;3.25;;;;;;;12.20;100.00;100830.56;7293482;19;20033;-76
2022/11/09 10:17:13;;;;;;;11.63;3.50;;;;;;;12.08;100.00;100825.22;7291981;19;20407;-76
2022/11/09 10:20:01;;;;;;;8.98;2.70;;;;;;;11.95;100.00;100831.28;7289459;19;20326;-75
2022/11/09 10:22:44;;;;;;;11.38;3.03;;;;;;;11.88;100.00;100824.22;7291390;19;20557;-75
2022/11/09 10:25:20;;;;;;;11.70;3.53;;;;;;;11.96;100.00;100815.50;7294647;19;20510;-73
2022/11/09 10:28:13;;;;;;;10.93;2.85;;;;;;;11.92;100.00;100824.25;7293427;19;20274;-76
2022/11/09 10:30:44;;;;;;;11.20;3.15;;;;;;;11.86;100.00;100821.56;7292903;19;20231;-73
2022/11/09 10:33:19;;;;;;;11.93;3.45;;;;;;;11.98;100.00;100811.16;7290258;19;20115;-76
2022/11/09 10:36:00;;;;;;;10.30;3.08;;;;;;;12.11;100.00;100813.00;7295611;19;20718;-76
2022/11/09 10:38:42;;;;;;;12.73;3.13;;;;;;;12.23;100.00;100816.56;7294145;19;20015;-75
2022/11/09 10:41:26;;;;;;;7.65;2.67;;;;;;;12.26;100.00;100811.31;7289948;19;20415;-75
2022/11/09 10:43:55;;;;;;;9.63;2.90;;;;;;;12.27;100.00;100811.34;7291514;19;20494;-74
2022/11/09 10:46:25;;;;;;;9.73;2.60;;;;;;;12.31;100.00;100817.50;7289650;19;20014;-75
2022/11/09 10:48:56;;;;;;;12.55;2.90;;;;;;;12.41;100.00;100828.06;7301452;19;20291;-73
2022/11/09 10:51:47;;;;;;;12.55;2.85;;;;;;;12.62;100.00;100806.22;7309661;19;20398;-74
2022/11/09 10:54:20;;;;;;;9.05;3.00;;;;;;;12.56;100.00;100808.81;7302375;19;20018;-74
2022/11/09 10:57:00;;;;;;;12.27;3.45;;;;;;;12.49;100.00;100806.16;7303281;19;20021;-74
2022/11/09 10:59:46;;;;;;;8.85;2.88;;;;;;;12.35;100.00;100795.59;7311408;19;20025;-74
2022/11/09 11:02:43;;;;;;;13.15;3.08;;;;;;;12.33;100.00;100799.97;7297924;19;20011;-74
2022/11/09 11:05:37;;;;;;;13.20;4.03;;;;;;;12.32;100.00;100790.31;7289856;19;20577;-76
2022/11/09 11:08:36;;;;;;;9.02;2.78;;;;;;;12.18;100.00;100807.78;7286123;19;20278;-75
2022/11/09 11:11:23;;;;;;;9.30;2.63;;;;;;;12.07;100.00;100819.09;7290440;19;20478;-75
2022/11/09 11:14:15;;;;;;;11.43;2.42;;;;;;;12.08;100.00;100812.09;7296219;19;20330;-74
2022/11/09 11:16:53;;;;;;;7.78;2.42;;;;;;;12.07;100.00;100810.34;7287902;19;20617;-76
2022/11/09 11:19:35;;;;;;;7.07;2.50;;;;;;;11.94;100.00;100824.25;7288934;19;20057;-74
2022/11/09 11:22:22;;;;;;;4.78;1.60;;;;;;;11.94;100.00;100830.38;7293503;19;20389;-75
2022/11/09 11:25:03;;;;;;;5.88;1.77;;;;;;;11.86;100.00;100837.34;7297592;19;20039;-75
2022/11/09 11:27:39;;;;;;;5.13;1.90;;;;;;;11.87;100.00;100849.59;7296952;19;20009;-75
2022/11/09 11:30:14;;;;;;;5.28;2.13;;;;;;;11.91;100.00;100846.13;7295583;19;20268;-76
2022/11/09 11:32:44;;;;;;;4.78;1.90;;;;;;;11.98;100.00;100854.94;7296166;19;20299;-77
2022/11/09 11:35:24;;;;;;;4.03;1.80;;;;;;;12.05;100.00;100846.25;7293862;19;20260;-76
2022/11/09 11:38:07;;;;;;;5.07;1.77;;;;;;;12.21;100.00;100839.34;7298734;19;20452;-74
2022/11/09 11:40:49;;;;;;;3.53;1.93;;;;;;;12.43;100.00;100822.81;7298920;19;20381;-75
2022/11/09 11:43:35;;;;;;;6.18;1.85;;;;;;;12.36;100.00;100853.47;7294648;19;20273;-76
2022/11/09 11:46:16;;;;;;;4.72;1.80;;;;;;;12.29;100.00;100841.16;7299577;19;20446;-77
2022/11/09 11:48:59;;;;;;;6.88;1.90;;;;;;;12.37;100.00;100834.19;7296194;19;20427;-76
2022/11/09 11:51:36;;;;;;;6.40;2.67;;;;;;;12.49;100.00;100838.59;7300485;19;20082;-73
2022/11/09 11:54:13;;;;;;;4.47;1.85;;;;;;;12.74;100.00;100840.50;7295889;19;20387;-76
2022/11/09 11:56:50;;;;;;;8.95;2.50;;;;;;;12.71;100.00;100837.84;7296631;19;20306;-76
2022/11/09 11:59:46;;;;;;;8.48;2.38;;;;;;;12.77;100.00;100823.84;7297160;19;20292;-76
2022/11/09 12:02:42;;;;;;;7.07;2.20;;;;;;;12.60;100.00;100842.16;7299857;19;20510;-76
2022/11/09 12:05:44;;;;;;;8.05;2.10;;;;;;;12.66;100.00;100843.97;7298985;19;20290;-76
2022/11/09 12:08:24;;;;;;;9.75;3.28;;;;;;;12.64;100.00;100822.91;7292870;19;20279;-77
2022/11/09 12:10:59;;;;;;;8.85;3.00;;;;;;;12.76;100.00;100854.53;7292470;19;20503;-76
2022/11/09 12:13:49;;;;;;;6.35;2.10;;;;;;;13.03;100.00;100842.34;7296555;19;20509;-76
2022/11/09 12:16:26;;;;;;;5.80;2.50;;;;;;;13.18;100.00;100842.44;7299000;19;20266;-76
2022/11/09 12:19:11;;;;;;;8.93;2.42;;;;;;;13.33;100.00;100821.41;7291412;19;20438;-77
2022/11/09 12:21:50;;;;;;;5.47;2.30;;;;;;;13.36;100.00;100831.06;7291147;19;20029;-76
2022/11/09 12:24:29;;;;;;;6.40;2.00;;;;;;;13.17;100.00;100838.03;7291034;19;20011;-76
2022/11/09 12:27:13;;;;;;;8.32;2.60;;;;;;;13.13;100.00;100843.25;7292951;19;20256;-77
2022/11/09 12:30:12;;;;;;;12.50;2.75;;;;;;;13.20;100.00;100842.44;7285725;19;20022;-77
2022/11/09 12:32:51;;;;;;;6.53;2.17;;;;;;;13.34;100.00;100838.97;7291643;19;20375;-79
2022/11/09 12:35:26;;;;;;;9.30;2.20;;;;;;;13.41;100.00;100827.56;7291113;19;20273;-75
2022/11/09 12:37:58;;;;;;;9.68;2.38;;;;;;;13.40;100.00;100841.63;7292021;19;20387;-75
2022/11/09 12:40:32;;;;;;;5.30;1.85;;;;;;;13.20;100.00;100835.41;7298198;19;20719;-77
2022/11/09 12:43:06;;;;;;;5.60;1.80;;;;;;;13.35;100.00;100834.56;7290020;19;20181;-78
2022/11/09 12:45:41;;;;;;;11.90;2.28;;;;;;;13.39;100.00;100839.84;7296460;19;20022;-76
2022/11/09 12:48:22;;;;;;;5.40;1.75;;;;;;;13.51;100.00;100843.38;7299151;19;20014;-75
2022/11/09 12:50:52;;;;;;;7.30;2.13;;;;;;;13.32;100.00;100817.00;7300059;19;20387;-76
2022/11/09 12:53:27;;;;;;;12.85;2.30;;;;;;;13.32;100.00;100853.88;7289328;19;20370;-77